Time;durP1;ratioP1;P1;durP2;ratioP2;P2;SDS_P1;SDS_P2;PMS_P1;PMS_P2;Temp;Humidity;BMP_temperature;BMP_pressure;BME280_temperature;BME280_humidity;BME280_pressure;Samples;Min_cycle;Max_cycle;Signal;HPM_P1;HPM_P2
2021/11/10 00:00:17;;;;;;;13.40;7.47;;;;;;;15.79;56.91;101988.50;5052821;28;20291;-72
2021/11/10 00:02:42;;;;;;;19.47;8.83;;;;;;;17.47;53.52;101958.56;5036230;28;20203;-73
2021/11/10 00:05:08;;;;;;;15.77;8.67;;;;;;;16.93;54.45;101962.00;5053302;28;20176;-73
2021/11/10 00:07:34;;;;;;;16.07;9.50;;;;;;;18.10;52.41;101960.72;5036116;28;20258;-73
2021/11/10 00:09:59;;;;;;;17.90;9.43;;;;;;;17.32;53.51;101947.88;5052647;28;20211;-74
2021/11/10 00:12:25;;;;;;;18.63;9.17;;;;;;;18.25;52.07;101945.34;5054189;28;20222;-73
2021/11/10 00:14:50;;;;;;;18.23;9.57;;;;;;;16.53;53.77;101949.09;5054116;28;20179;-73
2021/11/10 00:17:16;;;;;;;20.33;9.83;;;;;;;17.75;52.64;101956.78;5052695;28;20180;-73
2021/11/10 00:19:41;;;;;;;14.17;8.80;;;;;;;16.76;53.34;101941.50;5052624;28;20333;-74
2021/11/10 00:22:07;;;;;;;16.60;9.30;;;;;;;18.17;51.50;101960.31;5052848;28;20207;-74
2021/11/10 00:24:32;;;;;;;16.63;9.17;;;;;;;17.11;53.69;101950.97;5054065;28;20186;-74
2021/11/10 00:26:57;;;;;;;18.27;9.90;;;;;;;17.42;52.24;101949.88;5052625;28;20179;-74
2021/11/10 00:29:23;;;;;;;17.00;9.70;;;;;;;17.57;51.77;101956.13;5052584;28;20198;-75
2021/11/10 00:31:48;;;;;;;14.43;9.00;;;;;;;17.34;52.22;101948.63;5054011;28;20245;-75
2021/11/10 00:34:13;;;;;;;14.70;8.93;;;;;;;18.74;49.89;101960.94;5053961;28;20176;-74
2021/11/10 00:36:39;;;;;;;17.67;10.13;;;;;;;17.98;51.43;101963.41;5054134;28;20257;-74
2021/11/10 00:39:05;;;;;;;17.80;8.80;;;;;;;18.35;51.22;101959.97;5052296;28;20592;-74
2021/11/10 00:41:31;;;;;;;14.17;8.80;;;;;;;17.72;51.96;101955.16;5052174;28;20207;-75
2021/11/10 00:44:00;;;;;;;12.67;8.17;;;;;;;18.76;49.38;101953.59;5052487;28;20522;-74
2021/11/10 00:46:26;;;;;;;14.47;8.27;;;;;;;16.69;52.75;101940.97;5052175;28;20172;-75
2021/11/10 00:48:51;;;;;;;17.63;8.50;;;;;;;18.52;49.33;101944.41;5053459;28;20180;-75
2021/11/10 00:51:16;;;;;;;12.03;8.47;;;;;;;19.90;47.42;101939.91;5053516;28;20199;-75
2021/11/10 00:53:42;;;;;;;11.77;7.67;;;;;;;17.86;49.66;101921.00;5053455;28;20180;-75
2021/11/10 00:56:07;;;;;;;16.47;7.97;;;;;;;17.24;51.24;101925.91;5053242;28;20175;-75
2021/11/10 00:58:32;;;;;;;15.97;8.50;;;;;;;17.76;51.68;101954.00;5053172;28;20207;-74
2021/11/10 01:00:58;;;;;;;12.60;8.50;;;;;;;17.77;50.27;101947.63;5052986;28;20191;-76
2021/11/10 01:03:27;;;;;;;16.27;8.03;;;;;;;19.02;49.17;101946.34;5052150;28;20621;-75
2021/11/10 01:05:52;;;;;;;12.00;8.40;;;;;;;19.16;48.50;101939.94;5053190;28;20580;-75
2021/11/10 01:08:19;;;;;;;10.87;7.83;;;;;;;17.70;49.91;101934.63;5053419;28;20182;-75
2021/11/10 01:10:44;;;;;;;15.80;8.60;;;;;;;17.87;49.32;101941.63;5052965;28;20183;-74
2021/11/10 01:13:09;;;;;;;15.53;8.87;;;;;;;16.44;51.69;101944.28;5053073;28;20206;-76
2021/11/10 01:15:35;;;;;;;14.87;8.47;;;;;;;17.55;51.02;101947.28;5053291;28;20626;-75
2021/11/10 01:18:00;;;;;;;16.93;8.70;;;;;;;18.29;49.36;101949.56;5051952;28;20175;-73
2021/11/10 01:20:26;;;;;;;14.50;8.63;;;;;;;17.46;50.25;101947.84;5053295;28;20325;-75
2021/11/10 01:22:51;;;;;;;16.30;9.27;;;;;;;18.28;49.15;101946.97;5054706;28;20290;-74
2021/11/10 01:25:16;;;;;;;19.20;9.13;;;;;;;18.28;49.52;101947.84;5057503;28;20176;-75
2021/11/10 01:27:42;;;;;;;15.33;8.40;;;;;;;18.32;49.77;101951.19;5057188;28;20175;-75
2021/11/10 01:30:09;;;;;;;14.20;9.37;;;;;;;18.41;49.62;101951.44;5057198;28;20164;-76
2021/11/10 01:32:35;;;;;;;17.40;9.33;;;;;;;18.04;49.52;101946.78;5055304;28;20281;-74
2021/11/10 01:35:00;;;;;;;16.50;9.47;;;;;;;18.27;49.20;101946.13;5055577;28;20179;-75
2021/11/10 01:37:26;;;;;;;16.23;9.07;;;;;;;18.52;49.50;101941.72;5055617;28;20187;-76
2021/11/10 01:39:51;;;;;;;15.70;9.00;;;;;;;17.67;50.10;101930.31;5056358;28;20623;-75
2021/11/10 01:42:17;;;;;;;20.23;9.47;;;;;;;18.27;49.03;101924.50;5056618;28;20679;-75
2021/11/10 01:44:42;;;;;;;22.30;10.40;;;;;;;18.22;49.40;101929.34;5055242;28;20198;-75
2021/11/10 01:47:11;;;;;;;25.63;10.73;;;;;;;18.05;48.94;101924.19;5055169;28;20172;-76
2021/11/10 01:49:39;;;;;;;16.07;10.33;;;;;;;17.98;50.06;101936.38;5056492;28;20270;-74
2021/11/10 01:52:06;;;;;;;16.50;10.50;;;;;;;16.77;51.83;101921.66;5056266;28;20199;-74
2021/11/10 01:54:33;;;;;;;14.93;9.80;;;;;;;18.00;50.00;101929.91;5056642;28;20179;-74
2021/11/10 01:56:59;;;;;;;17.40;10.27;;;;;;;16.93;50.81;101921.56;5055053;28;20207;-75
2021/11/10 01:59:36;;;;;;;22.63;11.07;;;;;;;18.54;49.12;101927.13;5054881;28;20282;-74
2021/11/10 02:02:08;;;;;;;18.23;11.67;;;;;;;16.94;51.42;101910.69;5056161;28;20214;-75
2021/11/10 02:04:36;;;;;;;18.07;11.43;;;;;;;18.64;49.03;101922.00;5055241;28;20618;-75
2021/11/10 02:07:02;;;;;;;15.13;10.87;;;;;;;17.41;51.06;101926.53;5056422;28;20207;-75
2021/11/10 02:09:27;;;;;;;20.30;12.00;;;;;;;16.74;51.43;101906.56;5038118;28;20218;-75
2021/11/10 02:11:55;;;;;;;16.93;11.70;;;;;;;18.41;48.50;101918.13;5056016;28;20584;-75
2021/11/10 02:14:23;;;;;;;18.40;11.87;;;;;;;17.66;50.89;101920.44;5054826;28;20203;-75
2021/11/10 02:16:49;;;;;;;16.30;11.43;;;;;;;20.07;46.72;101918.78;5055890;28;20167;-75
2021/11/10 02:19:15;;;;;;;18.37;12.87;;;;;;;19.56;46.81;101908.16;5054882;28;20182;-76
2021/11/10 02:21:43;;;;;;;18.87;12.70;;;;;;;17.93;49.77;101911.53;5054425;28;20286;-75
2021/11/10 02:24:08;;;;;;;16.47;11.90;;;;;;;17.53;49.97;101906.03;5055744;28;20641;-75
2021/11/10 02:26:33;;;;;;;18.60;12.43;;;;;;;19.10;47.46;101897.09;5054607;28;20207;-74
2021/11/10 02:28:59;;;;;;;18.53;12.10;;;;;;;18.44;47.29;101888.19;5055666;28;20179;-75
2021/11/10 02:31:24;;;;;;;20.30;12.90;;;;;;;17.83;49.94;101910.38;5054734;28;20660;-74
2021/11/10 02:33:49;;;;;;;24.53;11.83;;;;;;;20.34;45.41;101899.56;5053925;28;20182;-75
2021/11/10 02:36:15;;;;;;;18.50;12.67;;;;;;;18.88;47.37;101893.22;5055443;28;20230;-75
2021/11/10 02:38:41;;;;;;;19.60;13.03;;;;;;;20.25;45.64;101902.00;5055441;28;20171;-74
2021/11/10 02:41:07;;;;;;;17.50;11.47;;;;;;;20.69;44.72;101897.72;5054007;28;20241;-74
2021/11/10 02:43:33;;;;;;;19.83;12.27;;;;;;;19.86;45.76;101895.06;5054023;28;20183;-74
2021/11/10 02:45:58;;;;;;;20.20;12.93;;;;;;;20.07;45.42;101886.28;5054104;28;20259;-73
2021/11/10 02:48:23;;;;;;;20.47;12.50;;;;;;;19.53;45.99;101884.91;5055211;28;20183;-74
2021/11/10 02:50:50;;;;;;;19.60;11.97;;;;;;;20.36;44.42;101873.19;5053918;28;20185;-75
2021/11/10 02:53:16;;;;;;;18.10;12.23;;;;;;;20.38;45.48;101891.06;5053885;28;20518;-74
2021/11/10 02:55:41;;;;;;;17.80;11.80;;;;;;;20.37;45.05;101902.03;5053837;28;20178;-74
2021/11/10 02:58:06;;;;;;;16.13;11.60;;;;;;;21.29;43.33;101893.84;5055288;28;20172;-74
2021/11/10 03:00:32;;;;;;;20.30;11.57;;;;;;;21.04;43.46;101877.75;5053544;28;20190;-76
2021/11/10 03:02:58;;;;;;;20.33;12.60;;;;;;;21.25;43.65;101888.78;5053517;28;20202;-74
2021/11/10 03:05:24;;;;;;;20.27;12.90;;;;;;;19.75;45.88;101895.00;5053682;28;20182;-74
2021/11/10 03:07:49;;;;;;;19.43;12.47;;;;;;;20.18;44.94;101870.06;5054792;28;20195;-75
2021/11/10 03:10:15;;;;;;;17.53;12.80;;;;;;;20.76;44.33;101879.97;5054662;28;20176;-75
2021/11/10 03:12:41;;;;;;;19.60;12.57;;;;;;;20.81;43.67;101872.34;5053651;28;20246;-75
2021/11/10 03:15:07;;;;;;;22.17;13.00;;;;;;;20.11;44.90;101874.25;5053834;28;20182;-74
2021/11/10 03:17:33;;;;;;;18.50;12.80;;;;;;;18.77;47.91;101879.59;5055769;28;20171;-75
2021/11/10 03:19:58;;;;;;;23.90;14.00;;;;;;;17.89;48.77;101870.34;5053368;28;20187;-75
2021/11/10 03:22:23;;;;;;;20.03;12.63;;;;;;;20.17;45.48;101871.06;5054828;28;20199;-75
2021/11/10 03:24:50;;;;;;;18.20;13.53;;;;;;;18.33;48.21;101864.63;5055108;28;20182;-75
2021/11/10 03:27:16;;;;;;;19.93;13.23;;;;;;;20.60;45.03;101861.34;5053876;28;20222;-75
2021/11/10 03:29:41;;;;;;;19.73;12.63;;;;;;;20.71;44.23;101859.59;5054669;28;20172;-75
2021/11/10 03:32:08;;;;;;;20.03;13.63;;;;;;;20.52;44.64;101854.78;5053467;28;20673;-75
2021/11/10 03:34:34;;;;;;;21.87;13.37;;;;;;;20.35;44.49;101844.34;5053994;28;20602;-75
2021/11/10 03:37:00;;;;;;;22.03;13.10;;;;;;;20.90;43.60;101844.47;5053365;28;20179;-75
2021/11/10 03:39:25;;;;;;;19.90;14.37;;;;;;;20.69;44.28;101857.03;5053327;28;20297;-75
2021/11/10 03:41:51;;;;;;;19.67;14.70;;;;;;;19.61;45.31;101852.69;5053072;28;20351;-74
2021/11/10 03:44:16;;;;;;;20.97;14.47;;;;;;;19.03;46.88;101847.97;5062785;28;20222;-75
2021/11/10 03:46:42;;;;;;;21.27;14.03;;;;;;;18.88;46.70;101838.25;5062676;28;20583;-74
2021/11/10 03:49:09;;;;;;;23.77;15.10;;;;;;;18.91;47.10;101854.25;5055096;28;20175;-74
2021/11/10 03:51:34;;;;;;;16.97;13.67;;;;;;;18.90;47.14;101839.00;5053974;28;20576;-74
2021/11/10 03:53:59;;;;;;;23.77;14.57;;;;;;;19.33;46.11;101834.91;5054259;28;20175;-73
2021/11/10 03:56:25;;;;;;;20.83;14.50;;;;;;;19.30;46.01;101834.25;5054876;28;20172;-74
2021/11/10 03:58:50;;;;;;;18.77;14.63;;;;;;;19.71;45.70;101820.38;5053380;28;20182;-75
2021/11/10 04:01:15;;;;;;;26.23;15.17;;;;;;;19.36;45.96;101831.97;5036584;28;20286;-75
2021/11/10 04:03:41;;;;;;;21.27;15.80;;;;;;;18.98;47.01;101829.38;5054239;28;20203;-75
2021/11/10 04:06:06;;;;;;;23.97;15.03;;;;;;;18.36;47.99;101834.66;5053533;28;20171;-76
2021/11/10 04:08:32;;;;;;;22.43;15.33;;;;;;;17.79;48.67;101832.28;5053119;28;20168;-76
2021/11/10 04:11:00;;;;;;;21.53;15.57;;;;;;;17.90;48.35;101823.47;5035863;28;20218;-74
2021/11/10 04:13:26;;;;;;;21.40;14.93;;;;;;;18.46;47.17;101802.44;5054182;28;20641;-75
2021/11/10 04:15:51;;;;;;;21.70;15.13;;;;;;;17.43;47.98;101800.47;5036095;28;20175;-75
2021/11/10 04:18:17;;;;;;;26.70;16.07;;;;;;;17.74;48.80;101825.47;5053958;28;20182;-75
2021/11/10 04:20:42;;;;;;;22.87;16.13;;;;;;;17.16;49.68;101816.66;5035834;28;20188;-75
2021/11/10 04:23:07;;;;;;;22.67;16.17;;;;;;;17.78;49.39;101827.84;5052298;28;20325;-75
2021/11/10 04:25:33;;;;;;;21.63;16.20;;;;;;;18.24;47.78;101815.75;5052744;28;20665;-77
2021/11/10 04:27:58;;;;;;;22.07;14.60;;;;;;;18.54;47.70;101816.28;5054786;28;20176;-74
2021/11/10 04:30:23;;;;;;;25.67;15.90;;;;;;;19.28;46.30;101828.09;5053814;28;20250;-75
2021/11/10 04:32:49;;;;;;;20.60;15.90;;;;;;;17.87;49.06;101829.09;5051975;28;20616;-74
2021/11/10 04:35:15;;;;;;;23.43;16.33;;;;;;;18.54;47.60;101824.38;5053525;28;20171;-75
2021/11/10 04:37:41;;;;;;;22.87;16.30;;;;;;;18.19;48.51;101824.16;5052199;28;20258;-76
2021/11/10 04:40:08;;;;;;;23.97;16.40;;;;;;;17.98;48.83;101823.81;5053827;28;20183;-75
2021/11/10 04:42:34;;;;;;;26.00;16.63;;;;;;;18.42;47.82;101811.75;5052003;28;20688;-75
2021/11/10 04:45:07;;;;;;;24.60;14.83;;;;;;;18.68;47.38;101801.81;5052491;28;20190;-75
2021/11/10 04:47:33;;;;;;;21.43;15.47;;;;;;;18.92;46.09;101799.19;5052152;28;20168;-76
2021/11/10 04:49:58;;;;;;;27.33;16.30;;;;;;;19.41;45.93;101791.03;5052274;28;20533;-75
2021/11/10 04:52:25;;;;;;;27.10;17.17;;;;;;;18.77;46.19;101787.63;5053188;28;20240;-75
2021/11/10 04:54:51;;;;;;;27.30;16.53;;;;;;;19.18;46.03;101797.28;5051745;28;20176;-76
2021/11/10 04:57:16;;;;;;;23.57;15.43;;;;;;;18.29;47.13;101791.97;5052843;28;20170;-75
2021/11/10 04:59:41;;;;;;;27.50;16.67;;;;;;;20.02;45.06;101797.19;5052916;28;20172;-76
2021/11/10 05:04:34;;;;;;;26.83;16.77;;;;;;;19.08;46.37;101788.97;5053004;28;20171;-75
2021/11/10 05:07:00;;;;;;;28.43;17.27;;;;;;;19.32;48.26;101806.09;5053166;28;20168;-75
2021/11/10 05:09:25;;;;;;;23.13;16.73;;;;;;;17.80;47.91;101787.25;5034993;28;20191;-74
2021/11/10 05:11:50;;;;;;;24.37;16.77;;;;;;;18.76;46.60;101783.22;5052801;28;20207;-75
2021/11/10 05:14:16;;;;;;;25.47;16.63;;;;;;;18.43;47.48;101790.00;5051578;28;20259;-75
2021/11/10 05:16:41;;;;;;;26.87;17.37;;;;;;;18.65;46.50;101783.13;5051683;28;20308;-72
2021/11/10 05:19:07;;;;;;;27.50;17.20;;;;;;;18.60;46.68;101787.97;5053036;28;20174;-74
2021/11/10 05:21:32;;;;;;;22.77;16.53;;;;;;;19.14;46.12;101780.41;5052892;28;20199;-73
2021/11/10 05:23:57;;;;;;;30.73;16.87;;;;;;;18.64;46.43;101773.28;5043657;23;20241;-67
2021/11/10 05:26:22;;;;;;;27.20;17.40;;;;;;;18.89;46.95;101783.16;4992920;28;20176;-67
2021/11/10 05:28:48;;;;;;;26.80;17.97;;;;;;;18.32;47.73;101781.81;4992874;28;20177;-67
2021/11/10 05:31:13;;;;;;;28.33;17.47;;;;;;;19.25;45.59;101787.72;4994203;28;20198;-67
2021/11/10 05:33:39;;;;;;;25.43;17.17;;;;;;;18.54;46.51;101788.38;4992638;28;20200;-67
2021/11/10 05:36:04;;;;;;;27.10;18.03;;;;;;;18.15;47.18;101778.53;4993851;28;20216;-67
2021/11/10 05:38:29;;;;;;;29.10;17.97;;;;;;;18.96;46.21;101788.06;4993068;28;20180;-68
2021/11/10 05:40:55;;;;;;;23.53;16.83;;;;;;;17.42;48.61;101782.56;4994429;28;20222;-67
2021/11/10 05:43:20;;;;;;;29.00;17.53;;;;;;;18.18;47.73;101787.28;4994877;28;20205;-67
2021/11/10 05:45:45;;;;;;;27.60;17.90;;;;;;;17.73;48.07;101785.94;4996608;28;20602;-67
2021/11/10 05:48:11;;;;;;;32.37;18.27;;;;;;;17.65;48.32;101794.53;4994302;28;20181;-65
2021/11/10 05:50:36;;;;;;;27.13;18.43;;;;;;;17.23;48.63;101791.97;4995668;28;20176;-68
2021/11/10 05:53:03;;;;;;;30.40;18.60;;;;;;;17.55;48.96;101803.34;4996302;28;20227;-66
2021/11/10 05:55:29;;;;;;;26.93;18.63;;;;;;;17.58;48.52;101798.59;4977619;28;20191;-67
2021/11/10 05:57:55;;;;;;;26.17;18.63;;;;;;;17.55;48.45;101798.81;4995063;28;20706;-67
2021/11/10 06:00:21;;;;;;;29.03;18.23;;;;;;;17.53;49.35;101802.59;4994487;28;20559;-68
2021/11/10 06:02:46;;;;;;;25.50;18.23;;;;;;;17.80;48.12;101801.59;4993938;28;20203;-66
2021/11/10 06:05:16;;;;;;;26.57;18.10;;;;;;;17.71;48.20;101794.13;4994303;28;20181;-68
2021/11/10 06:07:41;;;;;;;24.30;18.20;;;;;;;17.06;49.87;101801.16;4995430;28;20180;-65
2021/11/10 06:10:07;;;;;;;30.90;18.50;;;;;;;17.26;49.20;101797.16;5000906;28;20240;-68
2021/11/10 06:12:32;;;;;;;35.60;19.70;;;;;;;16.53;50.20;101792.81;5003602;28;20182;-68
2021/11/10 06:14:57;;;;;;;27.63;18.30;;;;;;;17.65;48.89;101808.00;5005061;28;20267;-65
2021/11/10 06:17:23;;;;;;;30.50;18.60;;;;;;;18.27;48.02;101802.88;5002241;28;20511;-66
2021/11/10 06:19:48;;;;;;;27.47;19.17;;;;;;;18.42;47.25;101792.81;4996319;28;20192;-66
2021/11/10 06:22:14;;;;;;;31.03;20.37;;;;;;;18.57;46.64;101798.97;4997843;28;20667;-67
2021/11/10 06:24:43;;;;;;;31.17;19.10;;;;;;;17.46;49.15;101815.59;4996070;28;20230;-67
2021/11/10 06:27:09;;;;;;;31.10;19.53;;;;;;;16.64;50.20;101802.03;4999978;28;20192;-67
2021/11/10 06:29:37;;;;;;;33.00;20.10;;;;;;;17.19;49.29;101802.97;5008382;28;20173;-66
2021/11/10 06:32:03;;;;;;;30.30;19.03;;;;;;;16.68;50.47;101809.00;4970511;28;20186;-66
2021/11/10 06:34:29;;;;;;;31.13;19.47;;;;;;;18.12;47.63;101795.84;4995966;28;20263;-66
2021/11/10 06:36:54;;;;;;;31.57;20.03;;;;;;;16.62;50.47;101801.28;4998145;28;20179;-70
2021/11/10 06:39:20;;;;;;;30.77;19.83;;;;;;;16.99;50.26;101816.00;4997306;28;20205;-67
2021/11/10 06:41:46;;;;;;;32.87;19.47;;;;;;;17.40;49.25;101807.91;4998905;28;20756;-68
2021/11/10 06:44:12;;;;;;;29.70;19.80;;;;;;;15.60;52.30;101806.53;4997137;28;20325;-67
2021/11/10 06:46:37;;;;;;;29.63;18.77;;;;;;;16.30;50.96;101793.34;4997978;28;20181;-68
2021/11/10 06:49:03;;;;;;;30.10;20.03;;;;;;;16.09;51.90;101803.63;4997299;28;20248;-67
2021/11/10 06:51:28;;;;;;;29.27;21.00;;;;;;;17.42;48.14;101782.56;4980572;28;20176;-68
2021/11/10 06:53:53;;;;;;;34.07;20.10;;;;;;;16.57;49.98;101788.94;4996987;28;20197;-67
2021/11/10 06:56:19;;;;;;;30.50;19.73;;;;;;;16.14;52.07;101792.56;4997284;28;20551;-67
2021/11/10 06:58:44;;;;;;;33.33;20.50;;;;;;;16.95;49.53;101784.81;4995685;28;20191;-67
2021/11/10 07:01:09;;;;;;;30.93;20.10;;;;;;;17.87;48.66;101780.47;4997149;28;20201;-65
2021/11/10 07:03:35;;;;;;;26.47;19.83;;;;;;;17.97;47.79;101783.41;4996546;28;20193;-66
2021/11/10 07:06:00;;;;;;;28.57;19.03;;;;;;;19.26;45.73;101778.63;4996498;28;20646;-66
2021/11/10 07:08:25;;;;;;;25.63;18.60;;;;;;;18.09;47.25;101771.72;4995334;28;20181;-66
2021/11/10 07:10:51;;;;;;;26.30;18.30;;;;;;;17.60;48.37;101791.28;4997796;28;20191;-69
2021/11/10 07:13:16;;;;;;;28.73;19.33;;;;;;;17.74;48.41;101795.75;4996754;28;20193;-70
2021/11/10 07:15:41;;;;;;;28.60;19.47;;;;;;;18.43;46.35;101781.91;4995755;28;20170;-70
2021/11/10 07:18:07;;;;;;;31.53;19.10;;;;;;;17.52;47.30;101777.44;4995946;28;20177;-69
2021/11/10 07:20:32;;;;;;;28.00;18.90;;;;;;;18.61;46.97;101795.09;4997776;28;20193;-68
2021/11/10 07:22:59;;;;;;;24.77;17.17;;;;;;;16.42;50.05;101791.75;4995245;28;20212;-69
2021/11/10 07:25:27;;;;;;;30.67;18.87;;;;;;;17.87;48.86;101799.38;4996513;28;20598;-69
2021/11/10 07:27:53;;;;;;;24.97;18.47;;;;;;;15.93;51.00;101784.81;4995680;28;20185;-69
2021/11/10 07:30:19;;;;;;;27.77;18.83;;;;;;;17.00;49.18;101793.47;4996612;28;20177;-69
2021/11/10 07:32:44;;;;;;;28.10;17.87;;;;;;;17.53;48.72;101789.09;4995053;28;20191;-70
2021/11/10 07:35:10;;;;;;;25.23;17.17;;;;;;;17.96;48.51;101787.94;4995125;28;20540;-68
2021/11/10 07:37:36;;;;;;;27.03;17.47;;;;;;;17.19;49.21;101776.00;4995826;28;20640;-69
2021/11/10 07:40:06;;;;;;;27.40;16.83;;;;;;;18.00;47.82;101775.09;4994975;28;20207;-68
2021/11/10 07:42:32;;;;;;;28.40;17.73;;;;;;;17.60;47.64;101774.22;4994428;28;20185;-69
2021/11/10 07:45:07;;;;;;;27.07;17.73;;;;;;;18.73;46.19;101768.06;4995466;28;20685;-69
2021/11/10 07:47:41;;;;;;;27.77;18.03;;;;;;;19.40;45.96;101778.47;4995873;28;20247;-69
2021/11/10 07:50:15;;;;;;;27.90;18.07;;;;;;;18.89;46.56;101780.47;4994200;28;20160;-69
2021/11/10 07:52:41;;;;;;;23.33;17.07;;;;;;;18.77;46.41;101787.63;4995008;28;20227;-68
2021/11/10 07:55:06;;;;;;;25.10;18.17;;;;;;;18.24;47.49;101796.84;4995297;28;20182;-69
2021/11/10 07:57:33;;;;;;;23.50;16.57;;;;;;;19.42;45.44;101792.75;4978846;28;20181;-69
2021/11/10 07:59:59;;;;;;;24.80;15.87;;;;;;;17.80;47.87;101801.59;4996681;28;20244;-68
2021/11/10 08:02:24;;;;;;;22.63;16.67;;;;;;;19.05;46.14;101800.03;4997206;28;20223;-69
2021/11/10 08:04:49;;;;;;;24.53;15.43;;;;;;;20.05;44.09;101785.25;4996377;28;20208;-69
2021/11/10 08:07:15;;;;;;;23.90;16.43;;;;;;;19.30;45.89;101793.66;4996921;28;20181;-70
2021/11/10 08:09:40;;;;;;;26.63;16.20;;;;;;;17.89;47.05;101789.34;4997770;28;20201;-70
2021/11/10 08:12:06;;;;;;;21.47;16.07;;;;;;;20.29;44.38;101802.31;4997309;28;20265;-70
2021/11/10 08:14:31;;;;;;;26.87;15.97;;;;;;;18.36;47.14;101779.75;4995522;28;20679;-69
2021/11/10 08:16:56;;;;;;;22.57;15.80;;;;;;;20.92;43.47;101790.06;4993469;28;20238;-70
2021/11/10 08:19:22;;;;;;;21.87;16.17;;;;;;;21.81;41.77;101778.09;4994321;28;20521;-69
2021/11/10 08:21:48;;;;;;;22.30;14.60;;;;;;;20.77;44.06;101783.16;4993220;28;20208;-69
2021/11/10 08:24:13;;;;;;;22.33;14.30;;;;;;;20.14;44.24;101776.44;4994554;28;20748;-69
2021/11/10 08:26:38;;;;;;;22.20;14.60;;;;;;;20.84;43.24;101781.69;4993466;28;20177;-69
2021/11/10 08:29:04;;;;;;;23.03;15.30;;;;;;;20.81;42.89;101774.69;4994420;28;20177;-69
2021/11/10 08:31:29;;;;;;;20.87;14.63;;;;;;;19.39;45.41;101782.16;4993963;28;20174;-70
2021/11/10 08:33:54;;;;;;;19.40;14.83;;;;;;;20.87;43.53;101790.44;4993974;28;20201;-70
2021/11/10 08:36:20;;;;;;;18.53;14.17;;;;;;;20.68;43.74;101778.47;4992790;28;20223;-69
2021/11/10 08:38:45;;;;;;;19.43;13.90;;;;;;;20.26;44.34;101787.16;4992759;28;20177;-70
2021/11/10 08:41:10;;;;;;;19.53;14.10;;;;;;;20.99;43.21;101801.28;4992596;28;20296;-69
2021/11/10 08:43:35;;;;;;;18.93;13.93;;;;;;;19.62;45.58;101802.97;4993944;28;20194;-69
2021/11/10 08:46:01;;;;;;;23.67;14.53;;;;;;;20.52;44.01;101800.56;4994180;28;20177;-69
2021/11/10 08:48:27;;;;;;;19.00;13.37;;;;;;;21.74;42.40;101798.66;4992790;28;20257;-68
2021/11/10 08:50:53;;;;;;;19.23;13.37;;;;;;;21.82;42.52;101798.84;4994126;28;20662;-68
2021/11/10 08:53:21;;;;;;;18.53;13.63;;;;;;;21.85;41.36;101775.00;4994145;28;20197;-69
2021/11/10 08:55:48;;;;;;;18.57;13.00;;;;;;;23.19;40.40;101797.66;4992695;28;20178;-69
2021/11/10 08:58:14;;;;;;;18.63;12.90;;;;;;;22.01;41.36;101785.44;4976789;28;20319;-69
2021/11/10 09:00:39;;;;;;;19.17;12.57;;;;;;;21.43;41.76;101790.34;4994052;28;20198;-69
2021/11/10 09:03:05;;;;;;;18.00;13.27;;;;;;;21.03;42.63;101797.31;4993931;28;20200;-69
2021/11/10 09:05:31;;;;;;;19.00;13.47;;;;;;;20.98;42.53;101792.28;4994514;28;20174;-70
2021/11/10 09:07:56;;;;;;;17.10;12.37;;;;;;;20.61;43.54;101786.25;4994058;28;20174;-69
2021/11/10 09:10:22;;;;;;;17.10;13.60;;;;;;;20.21;44.27;101785.81;4992697;28;20227;-69
2021/11/10 09:12:49;;;;;;;17.60;13.73;;;;;;;19.83;45.74;101783.38;4993931;28;20205;-68
2021/11/10 09:15:15;;;;;;;20.83;13.43;;;;;;;19.76;45.72;101798.38;4992784;28;20216;-68
2021/11/10 09:17:41;;;;;;;18.93;14.10;;;;;;;19.82;45.41;101790.63;4993967;28;20177;-68
2021/11/10 09:20:10;;;;;;;18.90;13.10;;;;;;;21.86;42.37;101794.88;4994139;28;20255;-70
2021/11/10 09:22:36;;;;;;;19.37;13.67;;;;;;;21.78;42.05;101775.66;4994363;28;20174;-70
2021/11/10 09:25:01;;;;;;;15.93;12.87;;;;;;;20.86;43.77;101788.72;4994178;28;20252;-69
2021/11/10 09:27:26;;;;;;;18.77;14.23;;;;;;;20.51;44.75;101782.56;4994744;28;20227;-69
2021/11/10 09:29:52;;;;;;;23.63;14.10;;;;;;;20.50;44.87;101783.53;4976348;28;20185;-69
2021/11/10 09:32:18;;;;;;;18.50;13.47;;;;;;;21.31;43.46;101783.25;4993051;28;20516;-69
2021/11/10 09:34:43;;;;;;;22.77;13.77;;;;;;;23.34;40.58;101779.03;4992652;28;20194;-69
2021/11/10 09:37:08;;;;;;;19.17;12.83;;;;;;;22.93;40.96;101771.91;4994257;28;20201;-70
2021/11/10 09:39:34;;;;;;;18.67;12.53;;;;;;;22.04;42.27;101773.47;4992584;28;20185;-69
2021/11/10 09:42:00;;;;;;;20.30;13.60;;;;;;;22.74;40.88;101781.72;4993920;28;20204;-68
2021/11/10 09:44:27;;;;;;;16.63;12.13;;;;;;;23.06;40.41;101780.72;4996475;28;20246;-68
2021/11/10 09:46:54;;;;;;;17.63;12.17;;;;;;;23.20;40.64;101784.91;4996727;28;20643;-68
2021/11/10 09:49:19;;;;;;;15.60;11.43;;;;;;;23.44;39.77;101782.66;4996689;28;20167;-68
2021/11/10 09:51:46;;;;;;;19.87;13.17;;;;;;;23.63;39.81;101790.00;4996988;28;20273;-69
2021/11/10 09:54:13;;;;;;;16.03;11.63;;;;;;;21.10;42.29;101784.97;4997614;28;20552;-69
2021/11/10 09:56:39;;;;;;;18.47;12.07;;;;;;;22.83;40.65;101777.34;4980193;28;20183;-69
2021/11/10 09:59:05;;;;;;;19.97;12.87;;;;;;;22.78;40.38;101766.84;4996230;28;20197;-68
2021/11/10 10:01:33;;;;;;;15.03;11.60;;;;;;;23.01;40.69;101766.63;4997599;28;20227;-69
2021/11/10 10:03:59;;;;;;;16.87;12.17;;;;;;;22.37;42.03;101772.38;4997133;28;20204;-69
2021/11/10 10:06:26;;;;;;;16.60;11.80;;;;;;;22.85;41.21;101771.75;4997267;28;20184;-69
2021/11/10 10:08:51;;;;;;;14.83;11.33;;;;;;;23.84;39.81;101771.66;4997670;28;20183;-70
2021/11/10 10:11:16;;;;;;;17.93;11.37;;;;;;;21.36;41.75;101759.28;4997339;28;20622;-70
2021/11/10 10:13:42;;;;;;;14.93;11.10;;;;;;;22.98;40.83;101764.19;4995904;28;20198;-69
2021/11/10 10:16:08;;;;;;;16.50;10.83;;;;;;;24.76;38.56;101769.13;4995830;28;20178;-69
2021/11/10 10:18:34;;;;;;;14.90;11.00;;;;;;;24.48;38.91;101765.50;4995459;28;20543;-69
2021/11/10 10:21:05;;;;;;;15.40;10.87;;;;;;;24.01;39.23;101760.00;4995853;28;20187;-68
2021/11/10 10:23:34;;;;;;;14.13;10.40;;;;;;;24.27;39.39;101775.75;4995379;28;20218;-69
2021/11/10 10:26:06;;;;;;;14.93;9.93;;;;;;;24.52;38.84;101756.00;4995628;28;20181;-69
2021/11/10 10:28:37;;;;;;;14.07;9.63;;;;;;;24.36;38.66;101752.19;4996564;28;20162;-69
2021/11/10 10:31:09;;;;;;;12.80;9.73;;;;;;;24.25;39.57;101766.84;4997078;28;20192;-68
2021/11/10 10:33:40;;;;;;;11.50;8.87;;;;;;;23.97;39.26;101763.16;4995447;28;20572;-69
2021/11/10 10:36:11;;;;;;;11.23;8.37;;;;;;;24.47;38.57;101762.91;4996139;28;20181;-69
2021/11/10 10:38:43;;;;;;;10.40;7.03;;;;;;;24.73;37.87;101760.38;4996461;28;20646;-69
2021/11/10 10:41:09;;;;;;;12.10;7.87;;;;;;;25.85;36.71;101756.34;4996403;28;20170;-69
2021/11/10 10:43:49;;;;;;;14.73;7.77;;;;;;;27.24;34.93;101739.69;4996540;28;20443;-67
2021/11/10 10:46:16;;;;;;;10.57;6.83;;;;;;;24.85;36.83;101738.19;4996218;28;20197;-68
2021/11/10 10:48:42;;;;;;;8.67;5.90;;;;;;;28.77;32.48;101734.28;4995073;28;20544;-68
2021/11/10 10:51:12;;;;;;;11.10;6.63;;;;;;;27.93;33.67;101727.44;4996273;28;20194;-69
2021/11/10 10:53:41;;;;;;;8.60;6.30;;;;;;;28.82;32.45;101737.34;4996169;28;20189;-69
2021/11/10 10:56:25;;;;;;;10.20;6.17;;;;;;;28.66;32.94;101722.84;4995041;28;20199;-69
2021/11/10 10:58:53;;;;;;;8.90;5.80;;;;;;;27.79;33.87;101733.59;4996156;28;20182;-69
2021/11/10 11:01:34;;;;;;;7.37;6.40;;;;;;;28.35;33.39;101726.38;4995213;28;20201;-68
2021/11/10 11:04:03;;;;;;;12.07;5.63;;;;;;;28.53;32.31;101721.47;4994648;28;20197;-68
2021/11/10 11:06:35;;;;;;;9.43;5.67;;;;;;;27.76;33.27;101728.47;4994836;28;20702;-69
2021/11/10 11:09:17;;;;;;;14.17;5.67;;;;;;;30.56;30.38;101701.75;4994671;28;20172;-69